Time;durP1;ratioP1;P1;durP2;ratioP2;P2;SDS_P1;SDS_P2;PMS_P1;PMS_P2;Temp;Humidity;BMP_temperature;BMP_pressure;BME280_temperature;BME280_humidity;BME280_pressure;Samples;Min_cycle;Max_cycle;Signal;HPM_P1;HPM_P2
2022/07/21 00:01:42;;;;;;;10.77;7.80;;;;;;;22.15;83.04;100842.25;5030090;28;20465;-75
2022/07/21 00:04:45;;;;;;;10.15;7.78;;;;;;;21.89;82.37;100855.38;5029867;28;20522;-74
2022/07/21 00:07:50;;;;;;;12.65;7.78;;;;;;;21.82;79.51;100855.09;5030347;28;20041;-75
2022/07/21 00:10:53;;;;;;;11.82;7.55;;;;;;;21.70;77.95;100857.13;5029920;28;20052;-76
2022/07/21 00:13:58;;;;;;;10.48;7.35;;;;;;;21.96;77.06;100865.31;5029894;28;20099;-76
2022/07/21 00:17:02;;;;;;;9.65;6.60;;;;;;;21.91;74.87;100864.88;5029622;28;20044;-76
2022/07/21 00:20:07;;;;;;;8.18;6.38;;;;;;;21.12;76.86;100895.25;5028574;28;20189;-76
2022/07/21 00:23:10;;;;;;;10.10;6.55;;;;;;;20.73;78.22;100872.25;5030357;28;20144;-76
2022/07/21 00:26:15;;;;;;;8.70;6.03;;;;;;;20.74;77.89;100866.81;5010356;28;20570;-75
2022/07/21 00:29:18;;;;;;;6.47;5.25;;;;;;;20.94;78.16;100858.84;5008849;28;20073;-75
2022/07/21 00:32:22;;;;;;;9.82;6.50;;;;;;;21.30;77.60;100854.63;5010185;28;20467;-75
2022/07/21 00:35:26;;;;;;;10.95;5.72;;;;;;;21.17;76.05;100830.16;5010102;28;20100;-75
2022/07/21 00:38:29;;;;;;;7.47;4.88;;;;;;;21.05;73.71;100806.38;5009575;28;20064;-75
2022/07/21 00:41:34;;;;;;;7.80;5.40;;;;;;;20.97;79.87;100811.56;5009610;28;20096;-75
2022/07/21 00:44:37;;;;;;;9.52;5.90;;;;;;;21.21;79.36;100834.22;5009496;28;20045;-75
2022/07/21 00:47:41;;;;;;;9.90;5.18;;;;;;;20.73;80.25;100873.09;5015166;28;20123;-75
2022/07/21 00:50:44;;;;;;;6.65;5.32;;;;;;;20.13;83.25;100891.63;5029517;28;20044;-75
2022/07/21 00:53:48;;;;;;;8.57;4.60;;;;;;;19.93;80.80;100887.19;5027085;28;20593;-74
2022/07/21 00:56:51;;;;;;;6.25;5.00;;;;;;;19.89;81.54;100891.06;5028949;28;20052;-75
2022/07/21 00:59:55;;;;;;;11.55;4.78;;;;;;;20.30;80.40;100886.66;5027505;28;20095;-75
2022/07/21 01:02:58;;;;;;;8.30;4.85;;;;;;;20.45;80.38;100885.28;5028655;28;20047;-75
2022/07/21 01:06:02;;;;;;;6.75;4.32;;;;;;;20.22;80.82;100884.66;5028928;28;20432;-75
2022/07/21 01:09:05;;;;;;;10.20;4.85;;;;;;;20.69;79.93;100898.25;5028074;28;20128;-75
2022/07/21 01:12:09;;;;;;;8.63;5.30;;;;;;;20.48;80.43;100895.63;5028284;28;20099;-74
2022/07/21 01:15:14;;;;;;;8.50;4.72;;;;;;;20.76;79.50;100894.06;5028896;28;20111;-74
2022/07/21 01:18:17;;;;;;;7.15;4.93;;;;;;;20.73;78.99;100896.16;5008209;28;20105;-75
2022/07/21 01:21:38;;;;;;;8.35;4.72;;;;;;;20.57;80.15;100897.53;5008920;28;20558;-75
2022/07/21 01:24:42;;;;;;;7.53;4.13;;;;;;;20.67;79.99;100890.41;5019566;28;20101;-75
2022/07/21 01:27:46;;;;;;;8.18;4.75;;;;;;;20.69;79.43;100898.25;5028977;28;20104;-75
2022/07/21 01:30:50;;;;;;;7.47;4.90;;;;;;;20.39;80.66;100899.13;5026759;28;20036;-75
2022/07/21 01:33:53;;;;;;;7.47;4.78;;;;;;;20.31;80.61;100922.84;5028836;28;20053;-75
2022/07/21 01:36:56;;;;;;;7.57;4.35;;;;;;;20.40;81.38;100922.88;5028606;28;20044;-75
2022/07/21 01:43:21;;;;;;;6.13;4.47;;;;;;;20.50;80.07;100922.91;5027725;28;20083;-75
2022/07/21 01:46:26;;;;;;;7.32;4.03;;;;;;;20.00;81.44;100906.91;5027214;28;20075;-75
2022/07/21 01:49:29;;;;;;;8.02;4.38;;;;;;;20.12;81.29;100919.13;5028092;28;20091;-75
2022/07/21 01:52:32;;;;;;;6.95;4.75;;;;;;;20.07;79.99;100915.19;5027750;28;20056;-74
2022/07/21 01:55:36;;;;;;;6.78;4.30;;;;;;;20.03;81.11;100909.28;5026366;28;20167;-74
2022/07/21 01:58:40;;;;;;;7.85;4.75;;;;;;;19.89;81.34;100905.19;5028087;28;20047;-75
2022/07/21 02:01:43;;;;;;;8.10;4.90;;;;;;;20.23;81.17;100914.69;5028119;28;20039;-75
2022/07/21 02:04:48;;;;;;;6.45;4.32;;;;;;;20.20;81.53;100916.66;5028810;28;20048;-74
2022/07/21 02:07:51;;;;;;;8.85;4.60;;;;;;;20.38;81.30;100905.41;5028705;28;20076;-74
2022/07/21 02:10:55;;;;;;;9.43;4.85;;;;;;;20.32;81.21;100912.06;5027126;28;20131;-75
2022/07/21 02:13:58;;;;;;;10.68;4.55;;;;;;;20.00;82.84;100917.53;5026886;28;20063;-76
2022/07/21 02:17:02;;;;;;;7.13;4.45;;;;;;;19.93;84.04;100908.41;5026962;28;20096;-76
2022/07/21 02:20:06;;;;;;;9.07;4.55;;;;;;;20.24;82.45;100908.44;5027920;28;20099;-75
2022/07/21 02:23:09;;;;;;;9.85;4.93;;;;;;;19.97;83.67;100910.69;5027910;28;20494;-75
2022/07/21 02:26:12;;;;;;;6.82;4.60;;;;;;;20.32;81.30;100906.75;5008991;28;20188;-75
2022/07/21 02:29:16;;;;;;;7.75;4.35;;;;;;;20.01;82.71;100900.66;5008061;28;20069;-75
2022/07/21 02:32:19;;;;;;;7.57;4.93;;;;;;;20.14;82.83;100914.53;5007873;28;20415;-76
2022/07/21 02:35:23;;;;;;;6.70;3.97;;;;;;;20.19;82.39;100914.13;5006915;28;20060;-76
2022/07/21 02:38:26;;;;;;;6.97;4.50;;;;;;;20.17;82.37;100908.97;5007051;28;20068;-75
2022/07/21 02:41:30;;;;;;;7.82;4.97;;;;;;;20.10;82.68;100910.47;5012347;28;20422;-75
2022/07/21 02:44:33;;;;;;;7.00;4.82;;;;;;;20.14;82.74;100922.50;5031060;28;20711;-75
2022/07/21 02:47:48;;;;;;;6.03;4.47;;;;;;;20.23;82.42;100896.97;5031853;28;20048;-75
2022/07/21 02:50:52;;;;;;;8.48;4.50;;;;;;;20.14;82.49;100898.59;5032072;28;20048;-74
2022/07/21 02:53:55;;;;;;;8.93;4.80;;;;;;;20.25;81.08;100888.84;5031042;28;20048;-75
2022/07/21 02:56:59;;;;;;;6.03;4.30;;;;;;;20.32;81.21;100885.53;5030269;28;20048;-75
2022/07/21 03:00:05;;;;;;;10.52;4.93;;;;;;;20.42;80.56;100885.56;5029701;28;20056;-75
2022/07/21 03:03:09;;;;;;;6.32;4.28;;;;;;;20.39;80.18;100875.22;5031403;28;20052;-77
2022/07/21 03:06:13;;;;;;;5.85;3.97;;;;;;;20.34;80.37;100888.06;5031462;28;20542;-76
2022/07/21 03:09:16;;;;;;;8.68;4.88;;;;;;;20.05;82.38;100904.72;5031421;28;20411;-75
2022/07/21 03:12:20;;;;;;;6.10;4.18;;;;;;;20.16;82.48;100909.06;5011514;28;20851;-75
2022/07/21 03:15:23;;;;;;;11.90;4.50;;;;;;;19.88;82.92;100907.97;5009915;28;20041;-75
2022/07/21 03:18:27;;;;;;;5.72;4.72;;;;;;;19.94;82.70;100913.59;5011064;28;20096;-75
2022/07/21 03:21:30;;;;;;;6.43;4.30;;;;;;;19.80;83.30;100913.09;5011219;28;20125;-75
2022/07/21 03:24:33;;;;;;;8.82;4.60;;;;;;;19.66;83.74;100915.09;5019886;28;20107;-74
2022/07/21 03:27:37;;;;;;;9.20;4.80;;;;;;;19.63;83.57;100904.72;5030083;28;20506;-75
2022/07/21 03:30:41;;;;;;;7.25;4.53;;;;;;;19.49;84.18;100903.19;5029787;28;20517;-75
2022/07/21 03:33:44;;;;;;;5.93;4.40;;;;;;;19.36;85.13;100907.00;5029834;28;20454;-74
2022/07/21 03:36:48;;;;;;;7.97;5.57;;;;;;;19.27;85.45;100914.78;5030525;28;20048;-75
2022/07/21 03:39:52;;;;;;;5.40;4.38;;;;;;;19.32;84.77;100911.72;5030021;28;20529;-75
2022/07/21 03:42:57;;;;;;;7.60;4.78;;;;;;;19.55;83.59;100904.50;5031108;28;20110;-75
2022/07/21 03:46:00;;;;;;;10.63;5.47;;;;;;;19.36;84.05;100907.00;5030114;28;20084;-76
2022/07/21 03:49:04;;;;;;;8.80;5.55;;;;;;;19.17;84.96;100916.47;5048244;28;20079;-69
2022/07/21 03:52:07;;;;;;;6.45;4.82;;;;;;;19.28;84.65;100911.16;5049931;28;20068;-69
2022/07/21 03:55:14;;;;;;;6.45;4.80;;;;;;;19.22;84.84;100916.97;5008279;28;20069;-72
2022/07/21 03:58:22;;;;;;;6.25;5.25;;;;;;;19.15;84.87;100918.44;5034470;28;20072;-69
2022/07/21 04:01:25;;;;;;;8.70;4.20;;;;;;;19.37;84.41;100919.28;5029431;28;20049;-69
2022/07/21 04:04:28;;;;;;;7.80;4.85;;;;;;;19.68;82.73;100913.13;5028783;28;20039;-71
2022/07/21 04:07:31;;;;;;;11.50;7.07;;;;;;;19.39;84.15;100912.06;5030185;28;20053;-70
2022/07/21 04:10:37;;;;;;;9.15;5.50;;;;;;;19.22;85.45;100914.31;5030334;28;20071;-68
2022/07/21 04:13:40;;;;;;;9.70;4.97;;;;;;;19.18;85.45;100914.69;5029305;28;20107;-69
2022/07/21 04:16:43;;;;;;;7.05;5.32;;;;;;;19.16;85.46;100920.13;5029685;28;20450;-67
2022/07/21 04:19:47;;;;;;;10.75;5.53;;;;;;;19.05;85.68;100907.75;5024536;28;20045;-69
2022/07/21 04:22:51;;;;;;;6.70;5.10;;;;;;;19.08;85.88;100908.44;5023848;28;20064;-81
2022/07/21 04:25:55;;;;;;;7.22;5.13;;;;;;;19.08;85.78;100925.22;5027937;28;20044;-85
2022/07/21 04:28:59;;;;;;;9.63;4.90;;;;;;;19.16;85.17;100928.06;5029297;28;20039;-85
2022/07/21 04:32:09;;;;;;;7.22;4.65;;;;;;;19.19;84.76;100933.13;5030782;28;20047;-88
2022/07/21 04:35:14;;;;;;;8.50;5.30;;;;;;;19.14;85.32;100939.75;5030754;28;20091;-82
2022/07/21 04:38:32;;;;;;;7.18;4.30;;;;;;;19.15;85.75;100937.00;5009814;28;20049;-81
2022/07/21 04:41:40;;;;;;;;;;;;;;;19.08;86.07;100946.41;5012810;28;20041;-83
2022/07/21 04:44:44;;;;;;;8.02;4.45;;;;;;;19.47;84.43;100941.44;5025025;28;19996;-77
2022/07/21 04:47:54;;;;;;;9.43;5.03;;;;;;;19.37;84.69;100940.50;5020634;28;20060;-90
2022/07/21 04:51:07;;;;;;;5.18;4.25;;;;;;;19.32;85.01;100940.06;5029773;28;20072;-82
2022/07/21 04:54:13;;;;;;;;;;;;;;;19.44;84.69;100942.53;5031117;28;20458;-84
2022/07/21 04:57:17;;;;;;;9.18;5.55;;;;;;;19.40;85.31;100953.50;5024847;28;19936;-86
2022/07/21 05:00:24;;;;;;;8.48;4.38;;;;;;;19.48;85.35;100959.03;4998136;28;20827;-83
2022/07/21 05:03:26;;;;;;;7.63;5.28;;;;;;;19.65;83.48;100955.84;5009468;28;20052;-83
2022/07/21 05:06:39;;;;;;;7.90;5.40;;;;;;;19.81;82.08;100950.09;5014414;28;20040;-87
2022/07/21 05:14:05;;;;;;;8.15;4.80;;;;;;;19.97;82.30;100955.81;5040838;28;20052;-86
2022/07/21 05:17:10;;;;;;;7.20;4.45;;;;;;;20.21;81.02;100941.41;5029212;28;20053;-85
2022/07/21 05:20:14;;;;;;;9.27;4.63;;;;;;;20.33;80.00;100939.50;5041290;28;20079;-86
2022/07/21 05:23:17;;;;;;;8.32;5.00;;;;;;;20.32;79.07;100943.09;5019752;28;20091;-81
2022/07/21 05:26:21;;;;;;;14.70;5.70;;;;;;;20.09;80.10;100937.97;5042064;28;20102;-71
2022/07/21 05:29:24;;;;;;;8.65;5.15;;;;;;;20.19;79.95;100940.69;5047580;28;20044;-74
2022/07/21 05:32:28;;;;;;;12.50;5.30;;;;;;;20.37;79.34;100941.75;5048598;28;20190;-73
2022/07/21 05:35:31;;;;;;;8.60;4.95;;;;;;;20.44;79.68;100944.72;5048732;28;20048;-73
2022/07/21 05:38:35;;;;;;;9.80;4.95;;;;;;;20.55;78.37;100947.31;5048055;28;20060;-73
2022/07/21 05:41:38;;;;;;;7.47;4.85;;;;;;;20.59;78.06;100943.41;5009751;28;20044;-74
2022/07/21 05:44:42;;;;;;;7.10;5.22;;;;;;;20.42;79.42;100954.59;5018504;28;20056;-75
2022/07/21 05:47:45;;;;;;;10.70;5.38;;;;;;;20.39;80.26;100953.09;5023114;28;20103;-74
2022/07/21 05:50:50;;;;;;;7.05;5.03;;;;;;;20.47;79.19;100956.88;5037588;28;20052;-74
2022/07/21 05:53:54;;;;;;;10.63;5.97;;;;;;;20.48;77.37;100956.72;5021133;28;20616;-73
2022/07/21 05:56:58;;;;;;;6.18;5.40;;;;;;;20.41;78.28;100958.25;5016904;28;20044;-74
2022/07/21 06:00:01;;;;;;;7.57;6.00;;;;;;;20.58;77.48;100960.31;5026252;28;20172;-73
2022/07/21 06:03:04;;;;;;;8.07;5.28;;;;;;;20.54;76.56;100974.81;5032347;28;20564;-73
2022/07/21 06:06:09;;;;;;;6.22;5.40;;;;;;;20.50;77.73;100970.72;5033475;28;20446;-73
2022/07/21 06:09:13;;;;;;;7.57;5.25;;;;;;;20.53;78.14;100967.84;5025111;28;20727;-73
2022/07/21 06:12:17;;;;;;;7.00;5.40;;;;;;;20.36;79.85;100979.06;5022899;28;20044;-72
2022/07/21 06:15:20;;;;;;;7.82;5.22;;;;;;;20.42;80.49;100979.38;5027822;28;20060;-73
2022/07/21 06:18:24;;;;;;;7.53;5.45;;;;;;;20.34;79.87;100979.19;5030215;28;20080;-73
2022/07/21 06:21:28;;;;;;;6.47;5.18;;;;;;;20.42;80.79;100984.69;5031471;28;20091;-73
2022/07/21 06:24:31;;;;;;;6.25;5.22;;;;;;;20.47;81.76;100986.94;5032698;28;20481;-73
2022/07/21 06:27:34;;;;;;;5.95;5.05;;;;;;;20.34;82.32;100994.28;5032455;28;20099;-74
2022/07/21 06:30:38;;;;;;;8.13;5.38;;;;;;;20.43;81.59;100993.50;5031202;28;20076;-73
2022/07/21 06:33:41;;;;;;;6.95;5.55;;;;;;;20.53;81.63;100994.41;5031818;28;20088;-73
2022/07/21 06:36:44;;;;;;;8.80;5.50;;;;;;;20.61;81.59;100991.94;5031365;28;20048;-73
2022/07/21 06:39:48;;;;;;;7.80;5.63;;;;;;;20.41;83.23;100996.28;5030342;28;20134;-73
2022/07/21 06:42:52;;;;;;;9.20;5.82;;;;;;;20.59;82.23;101003.66;5014975;28;20073;-72
2022/07/21 06:45:55;;;;;;;8.40;6.10;;;;;;;20.74;82.17;101001.47;5031450;28;20056;-73
2022/07/21 06:48:58;;;;;;;8.23;5.40;;;;;;;20.83;78.56;100995.34;5031827;28;20041;-73
2022/07/21 06:52:02;;;;;;;7.15;4.85;;;;;;;20.97;78.58;100996.81;5031612;28;20478;-73
2022/07/21 06:55:09;;;;;;;7.55;5.13;;;;;;;21.07;76.79;101006.47;5031015;28;20053;-78
2022/07/21 06:58:19;;;;;;;12.15;5.13;;;;;;;21.05;76.26;101003.09;5031623;28;20040;-77
2022/07/21 07:01:22;;;;;;;6.63;5.25;;;;;;;21.26;75.75;101007.50;5031890;28;20103;-77
2022/07/21 07:04:26;;;;;;;7.38;5.32;;;;;;;20.89;73.77;101016.06;5032045;28;20047;-77
2022/07/21 07:07:30;;;;;;;7.90;5.13;;;;;;;20.83;73.96;101004.16;5031092;28;20407;-77
2022/07/21 07:10:33;;;;;;;20.13;5.60;;;;;;;20.62;74.30;101012.22;5031947;28;20041;-73
2022/07/21 07:13:37;;;;;;;6.45;4.50;;;;;;;20.94;72.78;101003.22;5032477;28;20080;-73
2022/07/21 07:16:40;;;;;;;6.60;4.78;;;;;;;21.29;72.98;101007.22;5031566;28;20044;-69
2022/07/21 07:19:43;;;;;;;7.00;4.70;;;;;;;20.37;72.85;101007.31;5031666;28;20814;-70
2022/07/21 07:22:47;;;;;;;6.07;4.82;;;;;;;20.47;74.36;101020.63;5031448;28;20052;-70
2022/07/21 07:25:50;;;;;;;5.57;4.28;;;;;;;20.89;73.52;101016.91;5030972;28;20517;-70
2022/07/21 07:28:53;;;;;;;6.40;4.68;;;;;;;20.56;73.36;101012.75;5031664;28;20087;-69
2022/07/21 07:31:58;;;;;;;9.10;4.20;;;;;;;20.85;72.79;101014.66;5031782;28;20465;-69
2022/07/21 07:35:01;;;;;;;6.88;4.32;;;;;;;20.55;73.08;101002.22;5031739;28;20083;-69
2022/07/21 07:38:05;;;;;;;5.45;4.80;;;;;;;20.66;72.54;101003.00;5031078;28;20474;-70
2022/07/21 07:41:08;;;;;;;8.05;4.85;;;;;;;21.00;71.60;100996.53;5031130;28;20655;-70
2022/07/21 07:44:12;;;;;;;12.88;4.72;;;;;;;21.19;71.01;100998.41;5031363;28;20064;-68
2022/07/21 07:47:15;;;;;;;6.85;5.30;;;;;;;21.23;71.03;100994.47;5031228;28;20048;-68
2022/07/21 07:50:18;;;;;;;6.55;5.30;;;;;;;20.86;71.87;101000.41;5031626;28;20100;-69
2022/07/21 07:53:22;;;;;;;8.93;5.15;;;;;;;20.71;72.21;101001.75;5031508;28;20049;-69
2022/07/21 07:56:25;;;;;;;6.57;4.60;;;;;;;20.90;71.95;100992.03;5030686;28;20179;-69
2022/07/21 07:59:29;;;;;;;6.57;4.90;;;;;;;20.84;72.61;100997.06;5029911;28;20124;-69
2022/07/21 08:02:32;;;;;;;7.00;4.55;;;;;;;20.90;72.51;100993.84;5029959;28;20099;-70
2022/07/21 08:05:35;;;;;;;6.25;4.65;;;;;;;21.04;71.84;100996.13;5029824;28;20040;-70
2022/07/21 08:08:38;;;;;;;8.05;5.15;;;;;;;21.01;71.96;100998.22;5030565;28;20585;-69
2022/07/21 08:11:43;;;;;;;6.45;4.82;;;;;;;20.93;72.24;101006.88;5030405;28;20044;-69
2022/07/21 08:14:46;;;;;;;7.32;4.90;;;;;;;20.78;73.16;101002.91;5030349;28;20522;-68
2022/07/21 08:17:59;;;;;;;5.93;5.25;;;;;;;20.94;72.16;101005.88;5030060;28;20048;-69
2022/07/21 08:21:12;;;;;;;8.43;5.47;;;;;;;20.97;71.55;100991.50;5030706;28;20052;-68
2022/07/21 08:24:16;;;;;;;6.10;4.88;;;;;;;20.69;71.98;101009.03;5030767;28;20179;-68
2022/07/21 08:27:20;;;;;;;7.68;5.40;;;;;;;20.64;71.90;101004.97;5029525;28;20125;-69
2022/07/21 08:30:27;;;;;;;7.65;5.30;;;;;;;20.76;71.28;101012.81;5030079;28;20044;-69
2022/07/21 08:33:31;;;;;;;6.32;5.03;;;;;;;20.80;72.13;101006.25;5029101;28;20083;-70
2022/07/21 08:36:35;;;;;;;6.97;4.45;;;;;;;20.90;70.92;100996.50;5029258;28;20103;-69
2022/07/21 08:39:39;;;;;;;6.30;4.72;;;;;;;21.16;69.85;100991.53;5028566;28;20056;-69
2022/07/21 08:42:42;;;;;;;5.75;4.70;;;;;;;21.27;68.76;100993.22;5028018;28;20128;-69
2022/07/21 08:45:46;;;;;;;8.80;4.90;;;;;;;21.34;68.07;100989.03;5010185;28;20104;-69
2022/07/21 08:48:50;;;;;;;6.55;4.43;;;;;;;21.69;66.44;100977.00;5009057;28;20511;-68
2022/07/21 08:51:54;;;;;;;5.65;4.50;;;;;;;21.62;67.84;100975.91;5011203;28;20398;-70
2022/07/21 08:54:57;;;;;;;6.70;5.07;;;;;;;21.67;67.72;100981.66;5028293;28;20051;-68
2022/07/21 08:58:03;;;;;;;6.85;4.20;;;;;;;21.71;66.71;100975.06;5028976;28;20105;-69
2022/07/21 09:01:06;;;;;;;6.07;5.05;;;;;;;22.04;65.99;100971.91;5029931;28;20048;-69
2022/07/21 09:04:22;;;;;;;6.80;4.03;;;;;;;22.29;64.26;100965.16;5029084;28;20084;-68
2022/07/21 09:07:26;;;;;;;6.18;4.03;;;;;;;22.23;64.32;100970.22;5028888;28;20115;-68
2022/07/21 09:10:31;;;;;;;6.60;4.30;;;;;;;22.43;64.26;100969.19;5029196;28;20080;-68
2022/07/21 09:13:34;;;;;;;13.80;4.20;;;;;;;22.24;63.56;100971.91;5027677;28;20375;-69
2022/07/21 09:16:43;;;;;;;4.65;3.63;;;;;;;22.19;63.62;100974.16;5026268;28;20094;-68
2022/07/21 09:19:48;;;;;;;4.85;3.63;;;;;;;22.23;63.48;100970.22;5028236;28;20072;-69
2022/07/21 09:23:12;;;;;;;4.80;3.65;;;;;;;22.33;63.50;100963.03;5028171;28;20068;-70
2022/07/21 09:26:15;;;;;;;5.20;3.47;;;;;;;22.56;62.86;100967.97;5028949;28;20411;-69
2022/07/21 09:29:19;;;;;;;5.18;3.10;;;;;;;22.67;61.29;100963.31;5028456;28;20071;-70
2022/07/21 09:32:28;;;;;;;7.43;3.42;;;;;;;22.93;59.96;100952.81;5028108;28;20052;-69
2022/07/21 09:35:31;;;;;;;6.90;3.60;;;;;;;22.85;59.82;100950.03;5028115;28;20107;-69
2022/07/21 09:38:42;;;;;;;5.45;2.92;;;;;;;22.79;59.66;100958.63;5027489;28;20099;-69
2022/07/21 09:41:45;;;;;;;4.25;2.80;;;;;;;22.98;59.04;100963.88;5027685;28;20044;-70
2022/07/21 09:44:53;;;;;;;4.68;3.10;;;;;;;23.12;57.79;100962.50;5027965;28;20136;-69
2022/07/21 09:47:56;;;;;;;4.25;2.75;;;;;;;23.18;57.55;100966.41;5027600;28;20107;-69
2022/07/21 09:51:29;;;;;;;4.88;2.45;;;;;;;23.02;56.51;100968.91;5028274;28;20652;-69
2022/07/21 09:54:33;;;;;;;;;;;;;;;22.96;53.80;100965.84;5010078;28;20049;-70
2022/07/21 09:57:37;;;;;;;4.07;2.30;;;;;;;23.14;53.86;100965.88;5008258;28;19967;-70
2022/07/21 10:00:40;;;;;;;3.25;2.20;;;;;;;23.35;53.54;100960.22;5008161;28;20487;-69
2022/07/21 10:03:46;;;;;;;5.22;2.30;;;;;;;23.33;53.90;100954.22;5008147;28;20530;-69
2022/07/21 10:06:50;;;;;;;6.55;2.72;;;;;;;23.46;52.25;100966.34;5007973;28;20100;-69
2022/07/21 10:09:55;;;;;;;3.03;1.95;;;;;;;23.21;52.47;100966.09;5008059;28;20127;-70
2022/07/21 10:12:58;;;;;;;3.85;2.25;;;;;;;23.35;52.65;100949.56;5008536;28;20048;-70
2022/07/21 10:16:05;;;;;;;4.47;2.17;;;;;;;23.35;53.01;100957.56;5008888;28;20049;-69
2022/07/21 10:19:39;;;;;;;3.75;2.25;;;;;;;23.62;52.28;100945.13;5008641;28;20104;-69
2022/07/21 10:23:02;;;;;;;3.95;2.33;;;;;;;23.63;51.16;100933.44;5008216;28;20053;-70
2022/07/21 10:26:07;;;;;;;3.83;2.17;;;;;;;23.63;51.64;100922.75;5023371;28;20407;-70
2022/07/21 10:29:10;;;;;;;4.38;2.65;;;;;;;23.78;51.62;100942.59;5028141;28;20459;-70
2022/07/21 10:32:19;;;;;;;5.25;2.38;;;;;;;23.64;51.40;100935.09;5027730;28;20606;-71
2022/07/21 10:35:31;;;;;;;3.85;2.35;;;;;;;23.63;51.59;100936.13;5026476;28;20437;-72
2022/07/21 10:38:36;;;;;;;4.18;2.28;;;;;;;23.79;52.08;100933.59;5027646;28;20057;-71
2022/07/21 10:41:42;;;;;;;3.80;2.35;;;;;;;23.84;52.19;100923.28;5028333;28;20072;-72
2022/07/21 10:44:48;;;;;;;3.80;2.30;;;;;;;24.17;49.73;100925.31;5027736;28;20048;-71
2022/07/21 10:47:51;;;;;;;3.83;2.35;;;;;;;24.37;50.34;100935.59;5028276;28;20053;-71
2022/07/21 10:50:58;;;;;;;5.13;2.53;;;;;;;23.86;50.69;100942.66;5028231;28;20112;-74
2022/07/21 10:54:25;;;;;;;6.97;2.47;;;;;;;23.98;49.96;100937.06;5028228;28;20052;-71
2022/07/21 10:57:29;;;;;;;4.15;1.92;;;;;;;23.99;47.14;100936.06;5029008;28;20123;-72
2022/07/21 11:00:36;;;;;;;4.63;2.40;;;;;;;24.19;46.46;100950.88;5028116;28;20075;-72
2022/07/21 11:03:42;;;;;;;5.35;2.60;;;;;;;24.34;45.04;100932.41;5028758;28;20103;-71
2022/07/21 11:06:46;;;;;;;3.80;2.13;;;;;;;24.52;44.23;100937.72;5030722;28;20070;-70
2022/07/21 11:10:16;;;;;;;3.65;1.98;;;;;;;24.44;43.99;100929.63;5030609;28;20087;-71
2022/07/21 11:13:25;;;;;;;7.13;2.30;;;;;;;24.22;44.37;100929.19;5031030;28;20056;-71
2022/07/21 11:16:49;;;;;;;4.78;2.33;;;;;;;24.04;44.98;100936.44;5031002;28;20120;-70
2022/07/21 11:19:53;;;;;;;4.68;2.60;;;;;;;24.02;45.22;100943.75;5027881;28;20076;-72
2022/07/21 11:23:02;;;;;;;5.80;2.88;;;;;;;24.01;45.66;100937.59;5050483;28;20044;-72
2022/07/21 11:26:06;;;;;;;7.53;3.10;;;;;;;24.02;45.91;100927.72;5050500;28;20108;-71
2022/07/21 11:29:09;;;;;;;4.75;2.83;;;;;;;24.41;45.79;100927.25;5033571;28;20120;-72
2022/07/21 11:32:15;;;;;;;4.25;3.10;;;;;;;24.45;45.55;100915.31;5030087;28;20099;-70
2022/07/21 11:35:19;;;;;;;5.75;3.30;;;;;;;24.54;44.14;100917.84;5038932;28;20043;-70
2022/07/21 11:38:22;;;;;;;4.07;2.83;;;;;;;24.82;43.58;100921.09;5040279;28;20533;-70
2022/07/21 11:41:26;;;;;;;6.32;3.17;;;;;;;24.99;42.05;100930.00;5012415;28;20180;-69
2022/07/21 11:44:30;;;;;;;9.18;3.42;;;;;;;24.93;43.17;100921.78;5010302;28;20537;-71
2022/07/21 11:47:34;;;;;;;7.80;2.80;;;;;;;24.87;43.20;100909.91;5010450;28;20045;-71
2022/07/21 11:50:37;;;;;;;5.10;3.22;;;;;;;25.09;42.79;100912.97;5010434;28;20056;-73
2022/07/21 11:53:44;;;;;;;7.10;3.33;;;;;;;24.96;43.16;100916.13;5018517;28;20056;-70
2022/07/21 11:56:52;;;;;;;6.43;3.20;;;;;;;24.52;43.78;100906.47;5049337;28;20040;-73
2022/07/21 11:59:58;;;;;;;4.47;3.03;;;;;;;24.52;43.79;100908.31;5050354;28;20103;-71
2022/07/21 12:03:07;;;;;;;7.07;3.30;;;;;;;24.49;44.83;100898.75;5051170;28;20599;-67
2022/07/21 12:06:13;;;;;;;7.95;3.90;;;;;;;24.81;44.46;100898.00;5051129;28;20052;-77
2022/07/21 12:09:17;;;;;;;5.88;3.65;;;;;;;25.00;44.62;100894.22;5050705;28;20604;-75
2022/07/21 12:12:42;;;;;;;6.75;3.20;;;;;;;25.18;43.73;100894.09;5049711;28;20056;-79
2022/07/21 12:15:45;;;;;;;5.57;3.03;;;;;;;25.38;43.54;100888.41;5049092;28;20055;-79
2022/07/21 12:18:49;;;;;;;5.72;3.45;;;;;;;25.42;43.41;100887.06;5050139;28;20044;-79
2022/07/21 12:21:53;;;;;;;6.82;3.67;;;;;;;25.52;43.15;100887.72;5049353;28;20071;-76
2022/07/21 12:24:58;;;;;;;4.97;3.75;;;;;;;25.62;42.40;100888.41;5049528;28;20174;-73
2022/07/21 12:28:04;;;;;;;5.05;3.90;;;;;;;25.51;43.22;100886.06;5048280;28;20588;-73
2022/07/21 12:31:12;;;;;;;5.93;3.50;;;;;;;25.55;42.32;100879.34;5009454;28;20141;-72
2022/07/21 12:34:18;;;;;;;7.25;3.42;;;;;;;25.45;42.47;100890.25;5009158;28;20045;-74
2022/07/21 12:38:12;;;;;;;5.90;3.58;;;;;;;25.89;40.93;100881.00;5029454;28;20462;-73
2022/07/21 12:41:18;;;;;;;5.63;3.50;;;;;;;25.59;41.30;100880.72;4979281;28;20048;-75
2022/07/21 12:44:26;;;;;;;5.35;3.80;;;;;;;25.39;42.76;100869.50;5029310;28;20060;-74
2022/07/21 12:47:30;;;;;;;5.63;3.90;;;;;;;25.26;43.41;100885.22;5029169;28;20244;-75
2022/07/21 12:50:35;;;;;;;5.43;3.47;;;;;;;25.68;42.43;100893.06;5028520;28;20458;-74
2022/07/21 12:53:45;;;;;;;8.07;4.25;;;;;;;25.90;42.10;100885.34;5043793;28;20044;-76
2022/07/21 12:56:49;;;;;;;5.80;4.07;;;;;;;26.15;41.35;100876.22;5031772;28;20445;-75
2022/07/21 12:59:53;;;;;;;7.70;4.13;;;;;;;26.69;40.59;100861.25;5028970;28;20092;-73
2022/07/21 13:02:58;;;;;;;4.00;2.97;;;;;;;26.64;40.51;100869.81;5026651;28;20276;-74
2022/07/21 13:06:04;;;;;;;5.05;3.80;;;;;;;27.07;38.98;100887.16;5010490;28;20104;-75
2022/07/21 13:09:08;;;;;;;5.05;4.13;;;;;;;27.45;38.42;100862.19;5010058;28;20083;-76
2022/07/21 13:12:14;;;;;;;6.22;3.88;;;;;;;27.66;37.78;100866.84;5009068;28;20083;-76
2022/07/21 13:15:18;;;;;;;7.97;3.63;;;;;;;27.20;38.26;100872.31;5008884;28;20342;-74
2022/07/21 13:18:22;;;;;;;7.43;3.28;;;;;;;26.85;38.34;100869.19;5023235;28;20429;-76
2022/07/21 13:21:25;;;;;;;6.18;3.85;;;;;;;26.45;40.20;100879.09;5029987;28;20530;-72
2022/07/21 13:24:30;;;;;;;5.82;3.95;;;;;;;26.11;40.46;100880.28;5029492;28;20099;-72
2022/07/21 13:27:34;;;;;;;7.53;4.00;;;;;;;26.66;39.96;100879.34;5029226;28;20111;-73
2022/07/21 13:30:38;;;;;;;7.15;3.70;;;;;;;26.89;39.72;100874.00;5010044;28;20085;-74
2022/07/21 13:33:42;;;;;;;7.28;4.38;;;;;;;27.27;38.92;100867.88;5012428;28;20045;-74
2022/07/21 13:36:45;;;;;;;5.85;4.10;;;;;;;27.19;39.09;100876.84;5011289;28;20048;-73
2022/07/21 13:39:49;;;;;;;5.28;3.90;;;;;;;26.78;39.60;100878.97;5019896;28;20144;-74
2022/07/21 13:42:56;;;;;;;5.20;3.10;;;;;;;26.37;40.06;100873.78;5008493;28;20099;-74
2022/07/21 13:46:01;;;;;;;5.93;3.50;;;;;;;26.58;39.90;100871.38;5005394;28;20060;-76
2022/07/21 13:49:04;;;;;;;5.60;3.58;;;;;;;27.44;37.80;100863.19;5007648;28;20125;-76
2022/07/21 13:52:12;;;;;;;6.30;3.45;;;;;;;27.88;37.32;100874.03;5006834;28;20180;-75
2022/07/21 13:55:15;;;;;;;4.85;3.30;;;;;;;27.27;37.90;100849.09;5007949;28;20080;-72
2022/07/21 13:58:19;;;;;;;7.28;3.35;;;;;;;26.81;39.07;100871.41;5008329;28;20057;-72
2022/07/21 14:01:22;;;;;;;7.32;3.58;;;;;;;26.61;39.63;100860.31;5023199;28;20047;-75
2022/07/21 14:04:26;;;;;;;8.70;4.05;;;;;;;26.42;40.61;100853.50;5022799;28;20087;-76
2022/07/21 14:07:30;;;;;;;5.38;3.65;;;;;;;25.98;42.11;100854.03;5020019;28;20040;-76
2022/07/21 14:10:34;;;;;;;7.95;3.53;;;;;;;26.03;42.30;100855.34;5047600;28;20642;-76
2022/07/21 14:13:37;;;;;;;5.25;3.60;;;;;;;25.59;42.75;100847.72;5048975;28;20051;-75
2022/07/21 14:16:41;;;;;;;10.68;3.92;;;;;;;25.55;43.06;100857.94;5048036;28;20122;-76
2022/07/21 14:19:46;;;;;;;5.97;3.70;;;;;;;25.42;43.00;100857.63;5048573;28;20048;-77
2022/07/21 14:22:49;;;;;;;7.60;3.97;;;;;;;25.30;43.33;100857.13;5031762;28;20075;-76
2022/07/21 14:25:53;;;;;;;8.13;3.42;;;;;;;25.22;43.77;100865.16;5019038;28;20148;-77
2022/07/21 14:28:56;;;;;;;5.95;3.50;;;;;;;25.14;43.98;100868.66;5028812;28;20060;-77